Time;durP1;ratioP1;P1;durP2;ratioP2;P2;SDS_P1;SDS_P2;PMS_P1;PMS_P2;Temp;Humidity;BMP_temperature;BMP_pressure;BME280_temperature;BME280_humidity;BME280_pressure;Samples;Min_cycle;Max_cycle;Signal;HPM_P1;HPM_P2
2022/09/20 00:00:14;;;;;;;;;;;17.30;99.50;;;;;;5060289;28;19916;-90
2022/09/20 00:02:40;;;;;;;;;;;17.30;99.50;;;;;;5075939;28;19908;-89
2022/09/20 00:05:07;;;;;;;;;;;17.30;99.50;;;;;;5060008;28;20209;-90
2022/09/20 00:07:33;;;;;;;;;;;17.30;99.50;;;;;;5076383;28;20066;-90
2022/09/20 00:09:58;;;;;;;;;;;17.30;99.50;;;;;;5059816;28;19987;-90
2022/09/20 00:12:25;;;;;;;;;;;17.30;99.50;;;;;;5076665;28;20323;-90
2022/09/20 00:14:51;;;;;;;;;;;17.30;99.50;;;;;;5059526;28;19918;-89
2022/09/20 00:17:16;;;;;;;;;;;17.30;99.50;;;;;;5058707;28;19912;-90
2022/09/20 00:19:42;;;;;;;;;;;17.30;99.50;;;;;;5057892;28;19913;-90
2022/09/20 00:22:08;;;;;;;;;;;17.30;99.50;;;;;;5057330;28;19916;-90
2022/09/20 00:24:35;;;;;;;;;;;17.30;99.50;;;;;;5056078;28;19909;-89
2022/09/20 00:27:01;;;;;;;;;;;17.30;99.40;;;;;;5056079;28;20049;-90
2022/09/20 00:29:27;;;;;;;;;;;17.30;99.40;;;;;;5055606;28;19908;-89
2022/09/20 00:31:52;;;;;;;;;;;17.20;99.40;;;;;;5056093;28;19950;-90
2022/09/20 00:35:18;;;;;;;;;;;17.20;99.40;;;;;;5056642;28;19936;-90
2022/09/20 00:37:12;;;;;;;;;;;17.20;99.40;;;;;;5057693;28;20168;-90
2022/09/20 00:39:38;;;;;;;;;;;17.20;99.40;;;;;;5076757;28;19916;-90
2022/09/20 00:42:04;;;;;;;;;;;17.20;99.30;;;;;;5058341;28;19916;-90
2022/09/20 00:44:44;;;;;;;;;;;17.20;99.30;;;;;;5059231;28;19909;-89
2022/09/20 00:47:39;;;;;;;;;;;17.20;99.30;;;;;;5058517;28;20308;-89
2022/09/20 00:50:11;;;;;;;;;;;17.20;99.30;;;;;;5037681;28;20253;-90
2022/09/20 00:52:37;;;;;;;;;;;17.20;99.30;;;;;;5057361;28;19915;-89
2022/09/20 00:55:06;;;;;;;;;;;17.20;99.30;;;;;;5055465;28;19923;-90
2022/09/20 00:57:34;;;;;;;;;;;17.20;99.30;;;;;;5054490;28;19915;-90
2022/09/20 01:00:00;;;;;;;;;;;17.20;99.30;;;;;;5071675;28;19912;-90
2022/09/20 01:02:28;;;;;;;;;;;17.10;99.30;;;;;;5054706;28;19913;-90
2022/09/20 01:04:56;;;;;;;;;;;17.10;99.30;;;;;;5053416;28;19909;-90
2022/09/20 01:07:22;;;;;;;;;;;17.10;99.30;;;;;;5053549;28;19969;-90
2022/09/20 01:09:48;;;;;;;;;;;17.10;99.20;;;;;;5070920;28;19916;-90
2022/09/20 01:12:17;;;;;;;;;;;17.10;99.20;;;;;;5054796;28;19912;-90
2022/09/20 01:14:43;;;;;;;;;;;17.10;99.20;;;;;;5054386;28;19931;-90
2022/09/20 01:17:09;;;;;;;;;;;17.10;99.20;;;;;;5053757;28;19988;-90
2022/09/20 01:19:53;;;;;;;;;;;17.10;99.20;;;;;;5053947;28;20288;-90
2022/09/20 01:22:41;;;;;;;;;;;17.10;99.20;;;;;;5056534;28;19935;-90
2022/09/20 01:25:15;;;;;;;;;;;17.10;99.20;;;;;;5056015;28;19909;-90
2022/09/20 01:27:40;;;;;;;;;;;17.10;99.20;;;;;;5054947;28;20129;-90
2022/09/20 01:30:08;;;;;;;;;;;17.10;99.20;;;;;;5073876;28;19919;-90
2022/09/20 01:32:44;;;;;;;;;;;17.00;99.10;;;;;;5056655;28;19975;-90
2022/09/20 01:35:11;;;;;;;;;;;17.00;99.20;;;;;;5054822;28;19909;-90
2022/09/20 01:37:55;;;;;;;;;;;17.00;99.10;;;;;;5059674;28;19947;-90
2022/09/20 01:40:37;;;;;;;;;;;17.10;99.10;;;;;;5060203;28;20422;-90
2022/09/20 01:43:02;;;;;;;;;;;17.00;99.10;;;;;;5077163;28;19920;-90
2022/09/20 01:45:29;;;;;;;;;;;17.00;99.10;;;;;;5059825;28;19973;-90
2022/09/20 01:47:58;;;;;;;;;;;17.00;99.10;;;;;;5076485;28;19923;-90
2022/09/20 01:50:35;;;;;;;;;;;17.00;99.10;;;;;;5059557;28;20016;-90
2022/09/20 01:53:10;;;;;;;;;;;17.00;99.10;;;;;;5059281;28;19916;-90
2022/09/20 01:55:55;;;;;;;;;;;17.00;99.10;;;;;;5061219;28;19993;-90
2022/09/20 01:58:32;;;;;;;;;;;17.00;99.10;;;;;;5060296;28;19948;-90
2022/09/20 02:01:17;;;;;;;;;;;16.90;99.00;;;;;;5059963;28;20274;-90
2022/09/20 02:03:46;;;;;;;;;;;16.90;99.00;;;;;;5061147;28;20432;-90
2022/09/20 02:06:18;;;;;;;;;;;16.90;99.00;;;;;;5061591;28;19922;-90
2022/09/20 02:08:43;;;;;;;;;;;16.90;99.00;;;;;;5062074;28;19909;-90
2022/09/20 02:11:19;;;;;;;;;;;16.90;99.00;;;;;;5062138;28;19919;-89
2022/09/20 02:13:48;;;;;;;;;;;16.90;99.00;;;;;;5061901;28;19915;-90
2022/09/20 02:16:32;;;;;;;;;;;16.90;99.30;;;;;;5062269;28;19915;-90
2022/09/20 02:19:10;;;;;;;;;;;16.90;99.00;;;;;;5061735;28;20168;-90
2022/09/20 02:21:54;;;;;;;;;;;16.90;99.00;;;;;;5062178;28;19986;-90
2022/09/20 02:24:29;;;;;;;;;;;16.90;99.00;;;;;;5061980;28;19908;-90
2022/09/20 02:27:17;;;;;;;;;;;16.80;98.90;;;;;;5062204;28;20006;-90
2022/09/20 02:29:48;;;;;;;;;;;16.80;98.90;;;;;;5061632;28;19908;-90
2022/09/20 02:32:23;;;;;;;;;;;16.80;99.00;;;;;;5079279;28;19916;-90
2022/09/20 02:35:04;;;;;;;;;;;16.80;98.90;;;;;;5061671;28;19908;-89
2022/09/20 02:37:48;;;;;;;;;;;16.80;98.90;;;;;;5062313;28;19966;-91
2022/09/20 02:40:31;;;;;;;;;;;16.80;98.90;;;;;;5045559;28;22820;-90
2022/09/20 02:43:00;;;;;;;;;;;16.80;98.90;;;;;;5062145;28;19908;-90
2022/09/20 02:45:38;;;;;;;;;;;16.80;98.90;;;;;;5060827;28;19923;-90
2022/09/20 02:48:04;;;;;;;;;;;16.80;98.90;;;;;;5059965;28;20267;-90
2022/09/20 02:50:37;;;;;;;;;;;16.80;98.90;;;;;;5062151;28;19996;-91
2022/09/20 02:53:21;;;;;;;;;;;16.80;98.90;;;;;;5060283;28;19909;-90
2022/09/20 02:55:59;;;;;;;;;;;16.80;98.90;;;;;;5061302;28;20110;-90
2022/09/20 02:58:48;;;;;;;;;;;16.80;98.90;;;;;;5061130;28;19912;-90
2022/09/20 03:01:32;;;;;;;;;;;16.80;98.90;;;;;;5047616;28;19920;-91
2022/09/20 03:04:01;;;;;;;;;;;16.80;98.90;;;;;;5061215;28;20161;-90
2022/09/20 03:06:26;;;;;;;;;;;16.70;98.80;;;;;;5061506;28;20263;-90
2022/09/20 03:08:52;;;;;;;;;;;16.80;98.80;;;;;;5062123;28;20147;-90
2022/09/20 03:11:24;;;;;;;;;;;16.70;98.80;;;;;;5062490;28;19991;-90
2022/09/20 03:13:54;;;;;;;;;;;16.70;98.80;;;;;;5061896;28;19909;-89
2022/09/20 03:16:38;;;;;;;;;;;16.70;98.80;;;;;;5061319;28;19951;-90
2022/09/20 03:19:12;;;;;;;;;;;16.70;98.80;;;;;;5062642;28;19912;-90
2022/09/20 03:21:53;;;;;;;;;;;16.70;98.80;;;;;;5063180;28;19913;-91
2022/09/20 03:24:18;;;;;;;;;;;16.70;98.80;;;;;;5062855;28;19944;-91
2022/09/20 03:27:02;;;;;;;;;;;16.70;98.70;;;;;;5063098;28;19919;-91
2022/09/20 03:29:45;;;;;;;;;;;16.70;98.70;;;;;;5060726;28;20279;-90
2022/09/20 03:32:26;;;;;;;;;;;16.70;98.70;;;;;;5062309;28;20190;-90
2022/09/20 03:35:10;;;;;;;;;;;16.70;98.70;;;;;;5060487;28;19915;-91
2022/09/20 03:37:54;;;;;;;;;;;16.70;98.70;;;;;;5062108;28;19912;-90
2022/09/20 03:40:38;;;;;;;;;;;16.70;98.70;;;;;;5060957;28;19923;-90
2022/09/20 03:43:18;;;;;;;;;;;16.70;99.00;;;;;;5061697;28;19947;-90
2022/09/20 03:46:02;;;;;;;;;;;16.70;98.70;;;;;;5061173;28;19961;-90
2022/09/20 03:48:31;;;;;;;;;;;16.60;98.70;;;;;;5062105;28;19909;-90
2022/09/20 03:51:03;;;;;;;;;;;16.60;98.70;;;;;;5060991;28;19916;-91
2022/09/20 03:53:47;;;;;;;;;;;16.60;98.70;;;;;;5062522;28;19908;-90
2022/09/20 03:56:20;;;;;;;;;;;16.60;98.70;;;;;;5062564;28;19962;-91
2022/09/20 03:58:51;;;;;;;;;;;16.60;98.70;;;;;;5062587;28;20126;-91
2022/09/20 04:01:20;;;;;;;;;;;16.60;98.60;;;;;;5062795;28;20125;-90
2022/09/20 04:03:48;;;;;;;;;;;16.60;98.60;;;;;;5062542;28;20195;-91
2022/09/20 04:06:33;;;;;;;;;;;16.60;98.60;;;;;;5062027;28;19908;-90
2022/09/20 04:09:08;;;;;;;;;;;16.60;98.60;;;;;;5060924;28;19917;-91
2022/09/20 04:11:39;;;;;;;;;;;16.60;98.60;;;;;;5059204;28;19909;-91
2022/09/20 04:14:21;;;;;;;;;;;16.60;98.60;;;;;;5059658;28;20002;-91
2022/09/20 04:17:03;;;;;;;;;;;16.60;98.60;;;;;;5057629;28;19973;-91
2022/09/20 04:19:47;;;;;;;;;;;16.60;98.60;;;;;;5059824;28;19908;-90
2022/09/20 04:22:17;;;;;;;;;;;16.60;98.60;;;;;;5059654;28;19916;-91
2022/09/20 04:24:55;;;;;;;;;;;16.50;98.60;;;;;;5060151;28;19963;-90
2022/09/20 04:27:28;;;;;;;;;;;16.60;98.60;;;;;;5058250;28;19908;-91
2022/09/20 04:30:06;;;;;;;;;;;16.60;98.80;;;;;;5076109;28;20320;-90
2022/09/20 04:32:43;;;;;;;;;;;16.50;98.50;;;;;;5057448;28;20228;-91
2022/09/20 04:38:10;;;;;;;;;;;16.60;98.50;;;;;;5075588;28;20030;-91
2022/09/20 04:40:55;;;;;;;;;;;16.60;98.50;;;;;;5056262;28;19998;-90
2022/09/20 04:43:50;;;;;;;;;;;16.60;98.50;;;;;;5057300;28;20192;-91
2022/09/20 04:46:30;;;;;;;;;;;16.50;98.40;;;;;;5013998;28;19974;-91
2022/09/20 04:49:15;;;;;;;;;;;16.60;98.70;;;;;;5056619;28;19935;-91
2022/09/20 04:51:48;;;;;;;;;;;16.60;98.40;;;;;;5056010;28;19969;-90
2022/09/20 04:54:34;;;;;;;;;;;16.60;98.30;;;;;;5055738;28;19909;-90
2022/09/20 04:57:05;;;;;;;;;;;16.60;98.20;;;;;;5055645;28;19908;-90
2022/09/20 04:59:37;;;;;;;;;;;16.60;98.20;;;;;;5056329;28;20099;-91
2022/09/20 05:02:12;;;;;;;;;;;16.60;98.10;;;;;;5055823;28;19912;-91
2022/09/20 05:04:44;;;;;;;;;;;16.60;98.10;;;;;;5056976;28;19919;-91
2022/09/20 05:07:29;;;;;;;;;;;16.60;98.00;;;;;;5057210;28;20146;-90
2022/09/20 05:10:14;;;;;;;;;;;16.60;98.00;;;;;;5055567;28;20065;-90
2022/09/20 05:12:59;;;;;;;;;;;16.70;98.00;;;;;;5054924;28;19915;-90
2022/09/20 05:15:37;;;;;;;;;;;16.70;97.90;;;;;;5054699;28;19924;-91
2022/09/20 05:18:21;;;;;;;;;;;16.70;97.90;;;;;;5053026;28;20227;-89
2022/09/20 05:20:58;;;;;;;;;;;16.70;97.90;;;;;;5052747;28;20131;-90
2022/09/20 05:23:27;;;;;;;;;;;16.70;97.80;;;;;;5053954;28;19908;-91
2022/09/20 05:26:02;;;;;;;;;;;16.70;97.80;;;;;;5051702;28;19909;-90
2022/09/20 05:28:33;;;;;;;;;;;16.70;97.70;;;;;;5051609;28;19940;-90
2022/09/20 05:31:19;;;;;;;;;;;16.70;97.70;;;;;;5051833;28;19944;-90
2022/09/20 05:33:56;;;;;;;;;;;16.70;97.70;;;;;;5049525;28;19924;-90
2022/09/20 05:36:40;;;;;;;;;;;16.70;97.60;;;;;;5049091;28;20194;-92
2022/09/20 05:39:21;;;;;;;;;;;16.70;97.60;;;;;;5048266;28;20154;-91
2022/09/20 05:41:47;;;;;;;;;;;16.70;97.50;;;;;;5048335;28;20068;-91
2022/09/20 05:44:18;;;;;;;;;;;16.70;97.40;;;;;;5046994;28;19908;-92
2022/09/20 05:47:03;;;;;;;;;;;16.70;97.40;;;;;;5048284;28;19970;-91
2022/09/20 05:49:48;;;;;;;;;;;16.70;97.30;;;;;;5047213;28;19919;-92
2022/09/20 05:52:32;;;;;;;;;;;16.70;97.30;;;;;;5045925;28;19973;-92
2022/09/20 05:55:01;;;;;;;;;;;16.70;97.30;;;;;;5047874;28;19908;-92
2022/09/20 05:57:47;;;;;;;;;;;16.70;97.20;;;;;;5050324;28;19939;-92
2022/09/20 06:00:18;;;;;;;;;;;16.70;97.20;;;;;;5052289;28;19935;-91
2022/09/20 06:02:50;;;;;;;;;;;16.70;97.20;;;;;;5051041;28;19909;-90
2022/09/20 06:05:23;;;;;;;;;;;16.70;97.20;;;;;;5050560;28;19920;-91
2022/09/20 06:07:48;;;;;;;;;;;16.80;97.20;;;;;;5049988;28;20367;-91
2022/09/20 06:10:30;;;;;;;;;;;16.80;97.20;;;;;;5052304;28;19921;-91
2022/09/20 06:13:02;;;;;;;;;;;16.80;97.20;;;;;;5054204;28;19916;-91
2022/09/20 06:15:33;;;;;;;;;;;16.80;97.20;;;;;;5058047;28;19908;-91
2022/09/20 06:18:05;;;;;;;;;;;16.90;97.10;;;;;;5051032;28;19908;-91
2022/09/20 06:20:34;;;;;;;;;;;16.90;97.00;;;;;;5048485;28;19924;-91
2022/09/20 06:23:02;;;;;;;;;;;17.00;96.90;;;;;;5051837;28;20003;-91
2022/09/20 06:25:36;;;;;;;;;;;17.00;96.80;;;;;;5054192;28;19909;-91
2022/09/20 06:28:18;;;;;;;;;;;17.00;96.70;;;;;;5054902;28;19908;-91
2022/09/20 06:30:54;;;;;;;;;;;17.00;96.70;;;;;;5053121;28;19909;-91
2022/09/20 06:33:24;;;;;;;;;;;17.10;96.70;;;;;;5053448;28;19916;-91
2022/09/20 06:35:56;;;;;;;;;;;17.10;96.70;;;;;;5054429;28;19952;-91
2022/09/20 06:41:27;;;;;;;;;;;17.20;96.70;;;;;;5069408;28;20013;-91
2022/09/20 06:43:57;;;;;;;;;;;17.20;96.60;;;;;;5048626;28;19962;-91
2022/09/20 06:46:23;;;;;;;;;;;17.30;96.40;;;;;;5048080;28;19920;-91
2022/09/20 06:48:49;;;;;;;;;;;17.50;96.10;;;;;;5050623;28;19908;-90
2022/09/20 06:51:14;;;;;;;;;;;17.50;95.90;;;;;;5048607;28;19967;-91
2022/09/20 06:53:40;;;;;;;;;;;17.60;95.60;;;;;;5049782;28;19909;-91
2022/09/20 06:56:15;;;;;;;;;;;18.00;95.20;;;;;;5050602;28;20481;-91
2022/09/20 06:58:41;;;;;;;;;;;18.40;94.10;;;;;;5052361;28;20258;-91
2022/09/20 07:01:08;;;;;;;;;;;18.40;93.30;;;;;;5050654;28;20023;-90
2022/09/20 07:03:33;;;;;;;;;;;18.20;93.90;;;;;;5050518;28;20186;-91
2022/09/20 07:05:59;;;;;;;;;;;18.00;94.00;;;;;;5048528;28;20143;-91
2022/09/20 07:08:26;;;;;;;;;;;17.80;94.40;;;;;;5059724;28;19908;-92
2022/09/20 07:10:52;;;;;;;;;;;17.70;94.70;;;;;;5065014;28;19904;-93
2022/09/20 07:13:19;;;;;;;;;;;17.60;95.00;;;;;;5071583;28;20015;-93
2022/09/20 07:15:45;;;;;;;;;;;17.50;95.20;;;;;;5072767;28;19920;-93
2022/09/20 07:18:11;;;;;;;;;;;17.50;95.60;;;;;;5078857;28;19896;-94
2022/09/20 07:20:36;;;;;;;;;;;17.40;95.70;;;;;;5081469;28;19920;-92
2022/09/20 07:23:02;;;;;;;;;;;17.40;95.80;;;;;;5079915;28;20299;-93
2022/09/20 07:25:29;;;;;;;;;;;17.40;95.90;;;;;;5079203;28;19909;-94
2022/09/20 07:28:00;;;;;;;;;;;17.50;96.00;;;;;;5079097;28;19939;-94
2022/09/20 07:30:26;;;;;;;;;;;17.50;95.90;;;;;;5079222;28;19920;-94
2022/09/20 07:32:51;;;;;;;;;;;17.50;95.90;;;;;;5077998;28;19916;-92
2022/09/20 07:35:17;;;;;;;;;;;17.40;95.90;;;;;;5076095;28;20036;-92
2022/09/20 07:37:42;;;;;;;;;;;17.50;95.80;;;;;;5075311;28;20309;-93
2022/09/20 07:40:09;;;;;;;;;;;17.60;95.60;;;;;;5075159;28;20289;-93
2022/09/20 07:42:35;;;;;;;;;;;17.70;95.50;;;;;;5074210;28;19908;-93
2022/09/20 07:45:01;;;;;;;;;;;17.80;95.20;;;;;;5073079;28;19919;-94
2022/09/20 07:47:30;;;;;;;;;;;17.70;95.30;;;;;;5072733;28;19984;-93
2022/09/20 07:49:55;;;;;;;;;;;17.70;95.20;;;;;;5071491;28;20206;-92
2022/09/20 07:52:21;;;;;;;;;;;17.60;95.30;;;;;;5071173;28;19928;-93
2022/09/20 07:54:48;;;;;;;;;;;17.60;95.50;;;;;;5073167;28;19943;-93
2022/09/20 07:57:14;;;;;;;;;;;17.60;95.50;;;;;;5074934;28;19909;-93
2022/09/20 07:59:40;;;;;;;;;;;17.70;95.40;;;;;;5075666;28;20148;-93
2022/09/20 08:02:06;;;;;;;;;;;19.30;93.10;;;;;;5075326;28;19912;-93
2022/09/20 08:04:31;;;;;;;;;;;20.30;86.50;;;;;;5076533;28;19909;-93
2022/09/20 08:06:57;;;;;;;;;;;20.90;80.80;;;;;;5075975;28;19896;-93
2022/09/20 08:09:23;;;;;;;;;;;22.00;76.70;;;;;;5075080;28;19909;-92
2022/09/20 08:11:49;;;;;;;;;;;23.40;68.20;;;;;;5075404;28;19908;-93
2022/09/20 08:14:15;;;;;;;;;;;23.60;63.40;;;;;;5074758;28;19928;-93
2022/09/20 08:16:42;;;;;;;;;;;22.60;65.70;;;;;;5072291;28;19908;-92
2022/09/20 08:19:08;;;;;;;;;;;21.70;71.40;;;;;;5069488;28;19909;-93
2022/09/20 08:21:34;;;;;;;;;;;21.10;76.50;;;;;;5065590;28;20172;-93
2022/09/20 08:24:00;;;;;;;;;;;20.80;80.50;;;;;;5064337;28;19932;-92
2022/09/20 08:26:26;;;;;;;;;;;20.50;84.00;;;;;;5063908;28;19956;-93
2022/09/20 08:28:54;;;;;;;;;;;20.20;86.00;;;;;;5056986;28;20321;-92
2022/09/20 08:31:21;;;;;;;;;;;20.00;88.00;;;;;;5059042;28;19916;-92
2022/09/20 08:33:47;;;;;;;;;;;19.80;89.80;;;;;;5059567;28;20255;-92
2022/09/20 08:36:14;;;;;;;;;;;19.60;90.60;;;;;;5057333;28;19916;-92
2022/09/20 08:38:39;;;;;;;;;;;19.60;90.90;;;;;;5058382;28;20013;-92
2022/09/20 08:41:13;;;;;;;;;;;19.50;91.20;;;;;;5053288;28;20018;-92
2022/09/20 08:43:59;;;;;;;;;;;19.50;91.60;;;;;;5054170;28;19908;-92
2022/09/20 08:46:27;;;;;;;;;;;19.40;91.80;;;;;;5050426;28;19908;-92
2022/09/20 08:48:53;;;;;;;;;;;19.30;92.30;;;;;;5054289;28;19947;-92
2022/09/20 08:51:20;;;;;;;;;;;19.20;92.90;;;;;;5055537;28;20139;-92
2022/09/20 08:53:53;;;;;;;;;;;19.20;92.90;;;;;;5053432;28;20141;-92
2022/09/20 08:56:19;;;;;;;;;;;19.10;93.20;;;;;;5053819;28;19916;-91
2022/09/20 08:58:45;;;;;;;;;;;19.10;93.50;;;;;;5051034;28;19908;-91
2022/09/20 09:01:17;;;;;;;;;;;19.10;93.70;;;;;;5051470;28;19912;-91
2022/09/20 09:03:43;;;;;;;;;;;19.20;93.70;;;;;;5051712;28;20192;-91
2022/09/20 09:06:11;;;;;;;;;;;19.50;93.10;;;;;;5051928;28;19944;-92
2022/09/20 09:08:37;;;;;;;;;;;19.40;92.90;;;;;;5051399;28;20143;-91
2022/09/20 09:11:10;;;;;;;;;;;19.20;93.30;;;;;;5051924;28;20069;-91
2022/09/20 09:13:54;;;;;;;;;;;19.10;93.70;;;;;;5050901;28;20074;-91
2022/09/20 09:16:22;;;;;;;;;;;19.00;94.00;;;;;;5052492;28;20164;-91
2022/09/20 09:18:48;;;;;;;;;;;18.90;94.60;;;;;;5052534;28;19909;-91
2022/09/20 09:21:23;;;;;;;;;;;18.90;94.80;;;;;;5052495;28;19967;-91
2022/09/20 09:24:00;;;;;;;;;;;18.90;95.20;;;;;;5051345;28;19909;-90
2022/09/20 09:26:27;;;;;;;;;;;18.90;95.30;;;;;;5050556;28;19916;-91
2022/09/20 09:29:07;;;;;;;;;;;18.80;95.70;;;;;;5049195;28;19959;-91
2022/09/20 09:31:32;;;;;;;;;;;18.80;95.70;;;;;;5048555;28;19948;-91
2022/09/20 09:33:58;;;;;;;;;;;18.80;95.70;;;;;;5049496;28;20355;-91
2022/09/20 09:36:24;;;;;;;;;;;18.80;96.00;;;;;;5048153;28;20349;-91
2022/09/20 09:38:52;;;;;;;;;;;18.90;96.20;;;;;;5046935;28;19966;-91
2022/09/20 09:41:25;;;;;;;;;;;19.70;95.30;;;;;;5045963;28;19912;-91
2022/09/20 09:44:00;;;;;;;;;;;20.60;92.90;;;;;;5043984;28;19909;-91
2022/09/20 09:46:29;;;;;;;;;;;21.20;90.70;;;;;;5045115;28;20156;-91
2022/09/20 09:49:11;;;;;;;;;;;21.30;88.40;;;;;;5047348;28;20002;-91
2022/09/20 09:51:37;;;;;;;;;;;21.50;86.30;;;;;;5048360;28;19912;-91
2022/09/20 09:54:03;;;;;;;;;;;21.50;85.70;;;;;;5045931;28;19919;-91
2022/09/20 09:56:39;;;;;;;;;;;21.40;86.60;;;;;;5051339;28;19913;-91
2022/09/20 09:59:11;;;;;;;;;;;21.20;88.10;;;;;;5059266;28;20418;-92
2022/09/20 10:01:41;;;;;;;;;;;20.90;90.00;;;;;;5058488;28;20278;-92
2022/09/20 10:04:10;;;;;;;;;;;20.60;91.10;;;;;;5054100;28;19909;-92
2022/09/20 10:06:39;;;;;;;;;;;20.40;92.00;;;;;;5051820;28;20015;-92
2022/09/20 10:09:23;;;;;;;;;;;20.10;92.80;;;;;;5051782;28;20338;-92
2022/09/20 10:11:57;;;;;;;;;;;20.00;93.40;;;;;;5052242;28;19916;-92
2022/09/20 10:14:23;;;;;;;;;;;19.90;94.10;;;;;;5049472;28;19908;-91
2022/09/20 10:17:08;;;;;;;;;;;19.80;94.20;;;;;;5049638;28;19935;-91
2022/09/20 10:19:33;;;;;;;;;;;19.70;94.50;;;;;;5050003;28;20175;-92
2022/09/20 10:22:08;;;;;;;;;;;19.70;94.90;;;;;;5053695;28;19919;-92
2022/09/20 10:24:54;;;;;;;;;;;19.60;95.20;;;;;;5052284;28;20011;-92
2022/09/20 10:27:38;;;;;;;;;;;19.50;95.30;;;;;;5052837;28;20217;-91
2022/09/20 10:30:10;;;;;;;;;;;19.50;95.50;;;;;;5051690;28;19948;-92
2022/09/20 10:32:39;;;;;;;;;;;19.40;95.70;;;;;;5051468;28;19916;-91
2022/09/20 10:35:23;;;;;;;;;;;19.30;95.80;;;;;;5052185;28;19920;-91
2022/09/20 10:37:49;;;;;;;;;;;19.30;96.00;;;;;;5051603;28;19912;-91
2022/09/20 10:40:14;;;;;;;;;;;19.30;96.10;;;;;;5050842;28;19943;-92
2022/09/20 10:45:40;;;;;;;;;;;19.30;96.40;;;;;;5071533;28;19919;-92
2022/09/20 10:48:20;;;;;;;;;;;19.30;96.40;;;;;;5051131;28;19908;-92
2022/09/20 10:51:03;;;;;;;;;;;19.20;96.50;;;;;;5051660;28;19908;-92
2022/09/20 10:53:38;;;;;;;;;;;19.20;96.60;;;;;;5051461;28;19939;-92
2022/09/20 10:56:22;;;;;;;;;;;19.10;96.90;;;;;;5050648;28;20019;-92
2022/09/20 10:58:48;;;;;;;;;;;19.10;97.10;;;;;;5048216;28;19908;-92
2022/09/20 11:01:17;;;;;;;;;;;19.10;97.10;;;;;;5051177;28;20156;-92
2022/09/20 11:04:03;;;;;;;;;;;19.10;97.30;;;;;;5051247;28;19909;-92
2022/09/20 11:06:49;;;;;;;;;;;19.00;97.30;;;;;;5051351;28;19970;-91
2022/09/20 11:09:18;;;;;;;;;;;19.00;97.50;;;;;;5049546;28;19976;-92
2022/09/20 11:11:49;;;;;;;;;;;19.10;97.50;;;;;;5050044;28;19916;-92
2022/09/20 11:14:19;;;;;;;;;;;19.20;97.40;;;;;;5050455;28;19909;-92
2022/09/20 11:16:47;;;;;;;;;;;19.30;97.20;;;;;;5051396;28;19995;-92
2022/09/20 11:19:36;;;;;;;;;;;19.40;96.90;;;;;;5048881;28;19908;-92
2022/09/20 11:22:01;;;;;;;;;;;19.40;96.70;;;;;;5049472;28;20320;-92
2022/09/20 11:24:46;;;;;;;;;;;19.50;96.50;;;;;;5050506;28;19912;-92
2022/09/20 11:27:24;;;;;;;;;;;19.60;96.30;;;;;;5051676;28;19908;-92
2022/09/20 11:30:17;;;;;;;;;;;19.60;96.00;;;;;;5049778;28;19953;-92
2022/09/20 11:32:56;;;;;;;;;;;19.60;95.90;;;;;;5046410;28;19923;-92
2022/09/20 11:35:58;;;;;;;;;;;19.70;95.90;;;;;;5048152;28;19935;-92
2022/09/20 11:38:24;;;;;;;;;;;19.60;95.80;;;;;;4948322;28;20012;-92
2022/09/20 11:40:52;;;;;;;;;;;19.70;95.90;;;;;;5030384;28;19968;-92
2022/09/20 11:43:18;;;;;;;;;;;19.70;95.80;;;;;;5051943;28;20233;-92
2022/09/20 11:45:45;;;;;;;;;;;19.80;95.70;;;;;;5052050;28;20282;-93
2022/09/20 11:48:14;;;;;;;;;;;19.80;95.70;;;;;;5050969;28;19916;-92
2022/09/20 11:50:48;;;;;;;;;;;19.80;95.50;;;;;;5056843;28;19908;-92
2022/09/20 11:53:23;;;;;;;;;;;19.90;95.50;;;;;;5053180;28;20180;-92
2022/09/20 11:56:04;;;;;;;;;;;19.90;95.40;;;;;;5050133;28;20336;-92
2022/09/20 11:58:30;;;;;;;;;;;19.90;95.70;;;;;;5052730;28;19976;-92
2022/09/20 12:00:58;;;;;;;;;;;19.90;95.40;;;;;;5051358;28;19952;-93
2022/09/20 12:03:29;;;;;;;;;;;19.80;95.30;;;;;;5048613;28;20424;-92
2022/09/20 12:05:56;;;;;;;;;;;19.90;95.30;;;;;;5047205;28;20283;-92
2022/09/20 12:08:28;;;;;;;;;;;19.80;95.30;;;;;;5049169;28;19908;-91
2022/09/20 12:10:55;;;;;;;;;;;19.80;95.30;;;;;;5047720;28;19905;-92
2022/09/20 12:13:23;;;;;;;;;;;19.80;95.30;;;;;;5050554;28;19908;-92
2022/09/20 12:16:01;;;;;;;;;;;19.80;95.30;;;;;;5050738;28;19908;-92
2022/09/20 12:18:35;;;;;;;;;;;19.80;95.40;;;;;;5049733;28;20305;-92
2022/09/20 12:21:00;;;;;;;;;;;19.80;95.20;;;;;;5050749;28;19912;-92
2022/09/20 12:23:39;;;;;;;;;;;19.80;95.00;;;;;;5066726;28;19920;-92
2022/09/20 12:26:04;;;;;;;;;;;19.80;94.90;;;;;;5050689;28;19913;-92
2022/09/20 12:28:33;;;;;;;;;;;19.80;94.80;;;;;;5049360;28;19908;-92
2022/09/20 12:31:20;;;;;;;;;;;19.80;94.80;;;;;;5048251;28;19959;-92
2022/09/20 12:34:05;;;;;;;;;;;19.70;94.80;;;;;;5049651;28;19916;-92
2022/09/20 12:36:43;;;;;;;;;;;19.70;94.80;;;;;;5049187;28;19970;-92
2022/09/20 12:39:11;;;;;;;;;;;19.70;94.80;;;;;;5049813;28;19908;-92
2022/09/20 12:41:48;;;;;;;;;;;19.60;94.90;;;;;;5048584;28;19912;-92
2022/09/20 12:44:26;;;;;;;;;;;19.60;94.90;;;;;;5047751;28;20140;-92
2022/09/20 12:46:55;;;;;;;;;;;19.60;95.00;;;;;;5048338;28;19953;-91
2022/09/20 12:52:49;;;;;;;;;;;19.60;95.00;;;;;;5048282;28;20297;-92
2022/09/20 12:55:06;;;;;;;;;;;19.50;95.00;;;;;;5066832;28;20340;-92
2022/09/20 12:57:31;;;;;;;;;;;19.50;95.10;;;;;;5050604;28;19970;-92
2022/09/20 12:59:58;;;;;;;;;;;19.50;95.10;;;;;;5047632;28;19944;-92
2022/09/20 13:03:02;;;;;;;;;;;19.50;95.10;;;;;;5049380;28;20080;-92
2022/09/20 13:05:36;;;;;;;;;;;19.50;95.10;;;;;;4950057;28;19943;-92
2022/09/20 13:08:11;;;;;;;;;;;19.50;95.10;;;;;;4948646;28;20238;-92
2022/09/20 13:10:39;;;;;;;;;;;19.50;95.10;;;;;;5005883;28;19908;-92
2022/09/20 13:13:15;;;;;;;;;;;19.40;95.00;;;;;;5046468;28;19919;-92
2022/09/20 13:15:47;;;;;;;;;;;19.40;95.10;;;;;;5048009;28;20435;-92
2022/09/20 13:18:14;;;;;;;;;;;19.40;95.20;;;;;;5066401;28;19978;-92
2022/09/20 13:20:40;;;;;;;;;;;19.40;95.30;;;;;;5048261;28;19912;-92
2022/09/20 13:23:06;;;;;;;;;;;19.40;95.30;;;;;;5048696;28;19930;-92
2022/09/20 13:25:32;;;;;;;;;;;19.40;95.30;;;;;;5051076;28;19908;-92
2022/09/20 13:28:09;;;;;;;;;;;19.40;95.30;;;;;;5047876;28;19904;-92
2022/09/20 13:30:34;;;;;;;;;;;19.40;95.20;;;;;;5048235;28;19908;-91
2022/09/20 13:33:18;;;;;;;;;;;19.40;95.10;;;;;;5049983;28;20175;-92
2022/09/20 13:35:46;;;;;;;;;;;19.50;95.00;;;;;;5051334;28;20064;-92
2022/09/20 13:38:11;;;;;;;;;;;19.50;95.00;;;;;;5052780;28;20030;-92
2022/09/20 13:40:41;;;;;;;;;;;19.50;94.90;;;;;;5051634;28;20289;-92
2022/09/20 13:43:29;;;;;;;;;;;19.50;95.00;;;;;;5051904;28;19934;-91
2022/09/20 13:45:59;;;;;;;;;;;19.50;95.00;;;;;;5049141;28;19920;-93
2022/09/20 13:48:25;;;;;;;;;;;19.50;95.00;;;;;;5050261;28;20254;-92
2022/09/20 13:50:51;;;;;;;;;;;19.40;95.00;;;;;;5052635;28;19908;-92
2022/09/20 13:53:17;;;;;;;;;;;19.40;95.10;;;;;;5050847;28;19909;-91
2022/09/20 13:55:43;;;;;;;;;;;19.30;95.20;;;;;;5052998;28;19938;-92
2022/09/20 13:58:21;;;;;;;;;;;19.30;95.30;;;;;;5049708;28;20469;-92
2022/09/20 14:00:48;;;;;;;;;;;19.30;95.30;;;;;;5051108;28;19912;-91
2022/09/20 14:03:18;;;;;;;;;;;19.30;95.40;;;;;;5050068;28;19920;-91
2022/09/20 14:05:45;;;;;;;;;;;19.30;95.50;;;;;;5050073;28;19923;-92
2022/09/20 14:08:16;;;;;;;;;;;19.20;95.60;;;;;;5046030;28;19917;-91
2022/09/20 14:10:44;;;;;;;;;;;19.20;95.70;;;;;;5046730;28;20001;-92
2022/09/20 14:13:16;;;;;;;;;;;19.20;95.70;;;;;;5067460;28;19909;-91
2022/09/20 14:15:43;;;;;;;;;;;19.20;95.80;;;;;;5050827;28;19909;-92
2022/09/20 14:18:20;;;;;;;;;;;19.20;95.80;;;;;;5049546;28;19908;-92
2022/09/20 14:20:45;;;;;;;;;;;19.20;95.90;;;;;;5050855;28;20267;-92
2022/09/20 14:23:24;;;;;;;;;;;19.20;95.90;;;;;;5048988;28;19909;-91
2022/09/20 14:26:05;;;;;;;;;;;19.20;96.00;;;;;;5049096;28;19912;-92
2022/09/20 14:28:31;;;;;;;;;;;19.20;96.10;;;;;;5047021;28;20331;-92
2022/09/20 14:31:05;;;;;;;;;;;19.10;96.10;;;;;;5050342;28;19955;-92
2022/09/20 14:33:30;;;;;;;;;;;19.20;96.20;;;;;;5050528;28;20102;-92
2022/09/20 14:35:56;;;;;;;;;;;19.10;96.10;;;;;;5050747;28;19919;-92
2022/09/20 14:38:24;;;;;;;;;;;19.10;96.10;;;;;;5051692;28;19908;-92
2022/09/20 14:40:50;;;;;;;;;;;19.10;96.10;;;;;;5051159;28;20062;-92
2022/09/20 14:43:28;;;;;;;;;;;19.10;96.20;;;;;;5051275;28;19919;-92
2022/09/20 14:45:55;;;;;;;;;;;19.20;96.20;;;;;;5052033;28;19908;-92
2022/09/20 14:48:20;;;;;;;;;;;19.20;96.20;;;;;;5049644;28;19909;-92
2022/09/20 14:51:06;;;;;;;;;;;19.20;96.20;;;;;;5051502;28;20212;-92
2022/09/20 14:53:35;;;;;;;;;;;19.20;96.30;;;;;;5068816;28;19920;-92
2022/09/20 14:56:04;;;;;;;;;;;19.20;96.20;;;;;;5048283;28;19908;-92
2022/09/20 14:58:30;;;;;;;;;;;19.20;96.20;;;;;;5048770;28;19995;-92